createdAt,value
2023-01-01T00:00:19.678Z,24.77
2023-01-01T00:02:46.749Z,24.40
2023-01-01T00:05:13.808Z,22.58
2023-01-01T00:07:40.933Z,20.15
2023-01-01T00:10:30.229Z,17.95
2023-01-01T00:12:58.774Z,20.60
2023-01-01T00:15:26.970Z,26.17
2023-01-01T00:17:54.463Z,24.90
2023-01-01T00:20:21.677Z,26.75
2023-01-01T00:22:56.703Z,26.05
2023-01-01T00:25:24.895Z,25.70
2023-01-01T00:27:52.029Z,24.77
2023-01-01T00:30:19.496Z,21.40
2023-01-01T00:32:55.663Z,18.20
2023-01-01T00:35:24.965Z,17.35
2023-01-01T00:37:52.656Z,16.42
2023-01-01T00:40:19.907Z,19.23
2023-01-01T00:42:46.927Z,18.98
2023-01-01T00:45:20.473Z,18.90
2023-01-01T00:47:48.980Z,21.17
2023-01-01T00:50:16.175Z,20.33
2023-01-01T00:52:43.331Z,20.67
2023-01-01T00:55:10.934Z,20.80
2023-01-01T00:57:37.995Z,20.40
2023-01-01T01:00:06.212Z,17.58
2023-01-01T01:02:33.478Z,21.63
2023-01-01T01:05:03.722Z,22.92
2023-01-01T01:07:35.798Z,20.52
2023-01-01T01:10:02.911Z,20.17
2023-01-01T01:12:30.004Z,20.33
2023-01-01T01:14:57.059Z,19.63
2023-01-01T01:17:24.125Z,20.70
2023-01-01T01:19:51.178Z,21.33
2023-01-01T01:22:22.830Z,24.52
2023-01-01T01:24:53.180Z,24.40
2023-01-01T01:27:20.414Z,24.02
2023-01-01T01:29:47.388Z,25.20
2023-01-01T01:32:14.893Z,25.52
2023-01-01T01:34:42.078Z,27.45
2023-01-01T01:37:09.110Z,26.10
2023-01-01T01:39:36.790Z,25.40
2023-01-01T01:42:04.269Z,25.50
2023-01-01T01:44:48.279Z,23.73
2023-01-01T01:47:43.194Z,21.90
2023-01-01T01:50:14.765Z,21.23
2023-01-01T01:52:53.646Z,22.13
2023-01-01T01:55:21.207Z,21.67
2023-01-01T01:57:48.414Z,19.60
2023-01-01T02:00:16.120Z,19.48
2023-01-01T02:02:52.902Z,17.92
2023-01-01T02:05:21.672Z,16.38
2023-01-01T02:07:49.908Z,17.88
2023-01-01T02:10:17.119Z,15.68
2023-01-01T02:12:44.451Z,15.98
2023-01-01T02:15:11.630Z,17.00
2023-01-01T02:17:54.323Z,15.73
2023-01-01T02:20:33.420Z,17.70
2023-01-01T02:23:41.097Z,15.65
2023-01-01T02:26:08.070Z,15.65
2023-01-01T02:28:55.999Z,13.75
2023-01-01T02:31:30.232Z,14.18
2023-01-01T02:34:02.275Z,15.23
2023-01-01T02:36:33.066Z,14.27
2023-01-01T02:39:03.410Z,16.42
2023-01-01T02:41:39.018Z,15.27
2023-01-01T02:46:35.291Z,14.68
2023-01-01T02:49:09.674Z,13.68
2023-01-01T02:52:17.232Z,12.82
2023-01-01T02:54:59.861Z,14.63
2023-01-01T02:57:35.639Z,17.13
2023-01-01T03:00:30.439Z,20.33
2023-01-01T03:03:17.586Z,21.33
2023-01-01T03:06:28.443Z,19.02
2023-01-01T03:09:13.639Z,15.35
2023-01-01T03:11:47.345Z,16.77
2023-01-01T03:14:25.207Z,10.27
2023-01-01T03:17:05.573Z,15.45
2023-01-01T03:19:37.980Z,16.25
2023-01-01T03:22:13.343Z,17.95
2023-01-01T03:25:04.508Z,18.67
2023-01-01T03:27:43.267Z,18.15
2023-01-01T03:30:13.264Z,15.23
2023-01-01T03:33:11.028Z,15.48
2023-01-01T03:35:38.077Z,15.55
2023-01-01T03:38:10.921Z,15.30
2023-01-01T03:40:39.721Z,15.27
2023-01-01T03:43:14.374Z,15.90
2023-01-01T03:45:45.696Z,14.88
2023-01-01T03:48:13.215Z,16.15
2023-01-01T03:51:09.763Z,18.58
2023-01-01T03:53:41.437Z,15.02
2023-01-01T03:56:39.827Z,17.40
2023-01-01T03:59:11.670Z,17.27
2023-01-01T04:01:44.829Z,16.23
2023-01-01T04:04:13.199Z,17.08
2023-01-01T04:06:40.465Z,17.35
2023-01-01T04:09:16.011Z,15.48
2023-01-01T04:12:01.977Z,16.45
2023-01-01T04:14:30.395Z,16.30
2023-01-01T04:16:58.035Z,15.80
2023-01-01T04:19:25.811Z,14.65
2023-01-01T04:21:52.954Z,15.82
2023-01-01T04:24:20.289Z,15.13
2023-01-01T04:26:48.520Z,14.85
2023-01-01T04:29:15.793Z,13.68
2023-01-01T04:31:42.911Z,25.05
2023-01-01T04:34:10.107Z,25.80
2023-01-01T04:36:37.277Z,21.77
2023-01-01T04:39:04.967Z,20.33
2023-01-01T04:41:32.319Z,20.90
2023-01-01T04:43:59.808Z,17.00
2023-01-01T04:46:27.037Z,18.42
2023-01-01T04:48:54.083Z,20.63
2023-01-01T04:51:21.817Z,22.27
2023-01-01T04:53:49.349Z,22.80
2023-01-01T04:56:20.411Z,22.10
2023-01-01T04:58:48.234Z,22.85
2023-01-01T05:01:22.038Z,23.70
2023-01-01T05:03:49.934Z,18.23
2023-01-01T05:06:17.656Z,21.65
2023-01-01T05:08:47.270Z,22.13
2023-01-01T05:11:18.112Z,28.17
2023-01-01T05:13:47.191Z,26.15
2023-01-01T05:16:16.976Z,25.33
2023-01-01T05:18:44.907Z,27.77
2023-01-01T05:21:16.066Z,28.83
2023-01-01T05:23:43.454Z,28.27
2023-01-01T05:26:12.645Z,27.90
2023-01-01T05:28:40.284Z,26.08
2023-01-01T05:31:11.025Z,26.80
2023-01-01T05:33:38.292Z,26.67
2023-01-01T05:36:07.809Z,25.13
2023-01-01T05:38:35.768Z,26.02
2023-01-01T05:41:08.833Z,25.88
2023-01-01T05:43:38.233Z,29.88
2023-01-01T05:46:07.933Z,32.22
2023-01-01T05:48:36.796Z,33.90
2023-01-01T05:51:07.202Z,38.08
2023-01-01T05:53:35.550Z,36.58
2023-01-01T05:56:03.203Z,40.15
2023-01-01T05:58:31.783Z,41.25
2023-01-01T06:01:16.458Z,38.90
2023-01-01T06:03:44.231Z,35.65
2023-01-01T06:06:14.796Z,32.90
2023-01-01T06:08:42.508Z,34.97
2023-01-01T06:11:12.217Z,38.35
2023-01-01T06:13:39.418Z,42.85
2023-01-01T06:16:07.111Z,43.58
2023-01-01T06:18:35.501Z,42.95
2023-01-01T06:21:14.050Z,45.00
2023-01-01T06:23:41.944Z,41.35
2023-01-01T06:26:11.043Z,32.72
2023-01-01T06:28:38.527Z,32.10
2023-01-01T06:31:07.692Z,32.67
2023-01-01T06:33:35.337Z,30.33
2023-01-01T06:36:05.248Z,30.65
2023-01-01T06:38:33.440Z,30.25
2023-01-01T06:41:03.681Z,30.83
2023-01-01T06:43:34.328Z,28.20
2023-01-01T06:46:07.374Z,27.08
2023-01-01T06:48:36.573Z,24.95
2023-01-01T06:51:09.914Z,22.80
2023-01-01T06:53:37.326Z,21.85
2023-01-01T06:56:05.151Z,23.27
2023-01-01T06:58:32.256Z,22.95
2023-01-01T07:01:11.305Z,26.13
2023-01-01T07:03:39.461Z,26.95
2023-01-01T07:06:07.625Z,25.58
2023-01-01T07:08:35.545Z,23.45
2023-01-01T07:11:03.597Z,22.92
2023-01-01T07:13:31.812Z,21.33
2023-01-01T07:16:00.216Z,20.20
2023-01-01T07:18:27.830Z,19.27
2023-01-01T07:21:00.349Z,17.58
2023-01-01T07:23:29.219Z,20.27
2023-01-01T07:25:57.116Z,19.10
2023-01-01T07:28:25.199Z,20.00
2023-01-01T07:30:54.720Z,21.23
2023-01-01T07:33:24.179Z,20.27
2023-01-01T07:35:51.565Z,20.42
2023-01-01T07:38:18.702Z,19.80
2023-01-01T07:40:45.982Z,20.88
2023-01-01T07:43:14.200Z,18.48
2023-01-01T07:45:41.465Z,17.00
2023-01-01T07:48:15.598Z,17.27
2023-01-01T07:50:43.556Z,17.05
2023-01-01T07:53:10.945Z,17.30
2023-01-01T07:55:38.245Z,16.48
2023-01-01T07:58:05.348Z,17.65
2023-01-01T08:00:32.477Z,17.52
2023-01-01T08:02:59.625Z,18.10
2023-01-01T08:05:27.398Z,17.75
2023-01-01T08:07:55.350Z,19.05
2023-01-01T08:10:22.931Z,18.88
2023-01-01T08:12:50.067Z,20.50
2023-01-01T08:15:18.141Z,20.63
2023-01-01T08:17:47.264Z,20.25
2023-01-01T08:20:14.739Z,18.73
2023-01-01T08:22:41.912Z,19.67
2023-01-01T08:25:09.413Z,20.25
2023-01-01T08:27:36.738Z,21.80
2023-01-01T08:30:04.575Z,19.10
2023-01-01T08:32:31.726Z,20.10
2023-01-01T08:34:58.802Z,18.92
2023-01-01T08:37:25.774Z,20.25
2023-01-01T08:39:54.127Z,20.35
2023-01-01T08:42:21.210Z,20.67
2023-01-01T08:44:48.282Z,22.65
2023-01-01T08:47:20.382Z,20.00
2023-01-01T08:49:47.464Z,20.70
2023-01-01T08:52:15.129Z,21.45
2023-01-01T08:54:42.620Z,22.23
2023-01-01T08:57:10.469Z,21.35
2023-01-01T08:59:38.296Z,20.30
2023-01-01T09:02:06.465Z,20.85
2023-01-01T09:04:34.168Z,20.55
2023-01-01T09:07:01.415Z,21.38
2023-01-01T09:09:31.676Z,23.08
2023-01-01T09:12:04.352Z,22.35
2023-01-01T09:14:32.569Z,23.60
2023-01-01T09:16:59.951Z,22.85
2023-01-01T09:19:27.653Z,22.10
2023-01-01T09:21:55.065Z,20.75
2023-01-01T09:24:22.309Z,22.85
2023-01-01T09:26:49.491Z,24.23
2023-01-01T09:29:20.996Z,23.95
2023-01-01T09:31:49.338Z,23.17
2023-01-01T09:34:18.086Z,24.20
2023-01-01T09:36:46.146Z,23.83
2023-01-01T09:39:15.632Z,24.73
2023-01-01T09:41:43.850Z,25.70
2023-01-01T09:44:43.814Z,23.73
2023-01-01T09:47:19.212Z,23.15
2023-01-01T09:49:47.830Z,24.02
2023-01-01T09:52:16.885Z,23.77
2023-01-01T09:54:51.552Z,23.92
2023-01-01T09:57:20.447Z,23.90
2023-01-01T09:59:47.721Z,25.17
2023-01-01T10:02:35.762Z,25.17
2023-01-01T10:05:25.538Z,24.52
2023-01-01T10:08:05.483Z,24.30
2023-01-01T10:10:33.608Z,25.80
2023-01-01T10:13:25.231Z,26.67
2023-01-01T10:16:04.135Z,24.25
2023-01-01T10:18:34.913Z,24.40
2023-01-01T10:21:29.401Z,23.45
2023-01-01T10:24:03.845Z,18.63
2023-01-01T10:26:33.007Z,22.63
2023-01-01T10:29:24.474Z,22.73
2023-01-01T10:31:52.378Z,23.33
2023-01-01T10:34:28.552Z,23.55
2023-01-01T10:36:59.145Z,23.88
2023-01-01T10:39:27.026Z,23.10
2023-01-01T10:41:54.170Z,24.48
2023-01-01T10:44:29.465Z,22.20
2023-01-01T10:46:59.353Z,21.42
2023-01-01T10:49:26.514Z,21.33
2023-01-01T10:51:54.829Z,21.35
2023-01-01T10:54:31.711Z,20.05
2023-01-01T10:56:59.633Z,18.85
2023-01-01T10:59:39.992Z,19.92
2023-01-01T11:02:19.058Z,18.60
2023-01-01T11:04:46.964Z,19.27
2023-01-01T11:07:19.213Z,19.25
2023-01-01T11:10:02.439Z,18.10
2023-01-01T11:15:37.452Z,18.15
2023-01-01T11:18:12.132Z,17.65
2023-01-01T11:20:40.116Z,16.25
2023-01-01T11:23:27.128Z,14.85
2023-01-01T11:25:59.199Z,15.63
2023-01-01T11:28:26.582Z,14.45
2023-01-01T11:31:03.984Z,14.55
2023-01-01T11:33:34.103Z,14.05
2023-01-01T11:36:01.644Z,14.90
2023-01-01T11:38:30.432Z,13.85
2023-01-01T11:41:05.442Z,12.75
2023-01-01T11:43:40.081Z,13.55
2023-01-01T11:46:12.036Z,14.52
2023-01-01T11:48:44.069Z,14.38
2023-01-01T11:51:29.866Z,14.48
2023-01-01T11:54:12.417Z,14.07
2023-01-01T11:56:40.309Z,13.57
2023-01-01T11:59:28.622Z,15.00
2023-01-01T12:02:02.337Z,13.60
2023-01-01T12:04:40.269Z,14.00
2023-01-01T12:07:11.057Z,14.90
2023-01-01T12:09:41.541Z,15.73
2023-01-01T12:12:34.901Z,13.88
2023-01-01T12:15:14.347Z,15.00
2023-01-01T12:17:47.357Z,14.32
2023-01-01T12:20:23.400Z,15.52
2023-01-01T12:22:50.958Z,15.27
2023-01-01T12:25:19.968Z,15.25
2023-01-01T12:28:10.391Z,15.90
2023-01-01T12:31:14.145Z,15.18
2023-01-01T12:34:00.799Z,17.45
2023-01-01T12:36:36.413Z,17.02
2023-01-01T12:39:31.277Z,16.58
2023-01-01T12:42:14.284Z,15.70
2023-01-01T12:44:58.024Z,16.45
2023-01-01T12:47:41.949Z,16.38
2023-01-01T12:50:29.132Z,15.50
2023-01-01T12:53:36.137Z,15.73
2023-01-01T12:56:08.355Z,17.65
2023-01-01T12:58:58.735Z,15.95
2023-01-01T13:01:33.517Z,16.05
2023-01-01T13:04:14.044Z,16.00
2023-01-01T13:07:05.926Z,14.73
2023-01-01T13:09:38.139Z,15.93
2023-01-01T13:12:14.551Z,16.23
2023-01-01T13:14:44.333Z,15.35
2023-01-01T13:17:30.159Z,17.40
2023-01-01T13:20:23.364Z,16.52
2023-01-01T13:22:50.465Z,16.52
2023-01-01T13:25:17.558Z,16.42
2023-01-01T13:28:01.269Z,16.25
2023-01-01T13:30:44.169Z,17.63
2023-01-01T13:33:27.099Z,16.95
2023-01-01T13:36:12.061Z,16.20
2023-01-01T13:39:00.256Z,17.75
2023-01-01T13:41:28.428Z,16.58
2023-01-01T13:44:04.066Z,18.02
2023-01-01T13:46:52.366Z,16.65
2023-01-01T13:49:23.965Z,15.98
2023-01-01T13:52:08.018Z,16.15
2023-01-01T13:55:15.235Z,18.33
2023-01-01T13:57:51.136Z,15.32
2023-01-01T14:00:20.400Z,16.52
2023-01-01T14:02:59.369Z,14.27
2023-01-01T14:05:32.576Z,15.40
2023-01-01T14:08:01.666Z,16.38
2023-01-01T14:10:32.463Z,15.95
2023-01-01T14:13:07.081Z,15.52
2023-01-01T14:18:11.530Z,15.95
2023-01-01T14:20:46.123Z,15.05
2023-01-01T14:25:46.249Z,15.55
2023-01-01T14:28:24.605Z,15.35
2023-01-01T14:30:52.497Z,14.95
2023-01-01T14:33:35.999Z,15.30
2023-01-01T14:36:06.032Z,14.25
2023-01-01T14:38:35.824Z,12.68
2023-01-01T14:41:10.439Z,18.90
2023-01-01T14:46:11.137Z,22.40
2023-01-01T14:48:45.775Z,24.45
2023-01-01T14:51:16.964Z,39.00
2023-01-01T14:53:45.725Z,28.25
2023-01-01T14:56:31.122Z,24.15
2023-01-01T14:59:10.247Z,25.67
2023-01-01T15:01:37.709Z,19.80
2023-01-01T15:04:16.166Z,17.52
2023-01-01T15:06:43.185Z,18.42
2023-01-01T15:09:16.676Z,15.35
2023-01-01T15:11:43.873Z,17.05
2023-01-01T15:14:37.113Z,17.23
2023-01-01T15:17:07.233Z,17.17
2023-01-01T15:19:36.661Z,15.13
2023-01-01T15:22:11.572Z,15.80
2023-01-01T15:24:39.360Z,14.13
2023-01-01T15:27:08.396Z,15.82
2023-01-01T15:29:39.173Z,13.93
2023-01-01T15:32:13.023Z,13.10
2023-01-01T15:34:48.942Z,12.70
2023-01-01T15:37:34.971Z,11.90
2023-01-01T15:40:24.824Z,12.30
2023-01-01T15:42:55.198Z,12.80
2023-01-01T15:45:23.848Z,13.15
2023-01-01T15:47:52.663Z,16.83
2023-01-01T15:50:44.198Z,15.45
2023-01-01T15:53:25.147Z,12.05
2023-01-01T15:55:58.343Z,12.05
2023-01-01T15:58:31.445Z,10.77
2023-01-01T16:01:03.770Z,11.95
2023-01-01T16:03:33.598Z,12.60
2023-01-01T16:06:01.204Z,13.73
2023-01-01T16:08:28.293Z,25.95
2023-01-01T16:10:55.550Z,18.60
2023-01-01T16:13:22.778Z,16.70
2023-01-01T16:16:21.875Z,11.95
2023-01-01T16:18:51.101Z,10.55
2023-01-01T16:21:19.347Z,11.65
2023-01-01T16:23:46.461Z,11.80
2023-01-01T16:26:15.203Z,13.15
2023-01-01T16:28:42.384Z,12.40
2023-01-01T16:31:16.127Z,10.93
2023-01-01T16:33:45.157Z,11.17
2023-01-01T16:36:13.177Z,10.50
2023-01-01T16:38:40.295Z,9.55
2023-01-01T16:41:16.166Z,11.65
2023-01-01T16:43:44.377Z,14.93
2023-01-01T16:46:13.651Z,13.57
2023-01-01T16:48:41.492Z,11.40
2023-01-01T16:51:19.250Z,11.25
2023-01-01T16:53:47.837Z,10.70
2023-01-01T16:56:15.414Z,10.52
2023-01-01T16:58:54.002Z,10.65
2023-01-01T17:01:23.837Z,11.27
2023-01-01T17:03:51.424Z,10.27
2023-01-01T17:06:19.346Z,10.70
2023-01-01T17:08:46.912Z,11.48
2023-01-01T17:11:17.734Z,11.00
2023-01-01T17:13:47.061Z,10.88
2023-01-01T17:16:23.058Z,10.63
2023-01-01T17:21:40.848Z,11.75
2023-01-01T17:24:08.980Z,10.65
2023-01-01T17:26:36.172Z,10.98
2023-01-01T17:29:03.668Z,11.95
2023-01-01T17:31:31.183Z,12.82
2023-01-01T17:33:59.508Z,12.70
2023-01-01T17:36:27.991Z,12.77
2023-01-01T17:38:55.806Z,12.75
2023-01-01T17:41:23.496Z,14.10
2023-01-01T17:43:52.048Z,14.05
2023-01-01T17:46:24.577Z,14.02
2023-01-01T17:48:53.468Z,13.82
2023-01-01T17:51:21.108Z,15.35
2023-01-01T17:53:49.490Z,12.90
2023-01-01T17:56:18.222Z,14.38
2023-01-01T17:58:46.845Z,14.82
2023-01-01T18:01:32.127Z,13.55
2023-01-01T18:04:05.520Z,12.27
2023-01-01T18:06:38.832Z,13.45
2023-01-01T18:09:11.545Z,13.00
2023-01-01T18:11:39.176Z,14.32
2023-01-01T18:14:06.420Z,14.80
2023-01-01T18:16:35.923Z,14.88
2023-01-01T18:19:05.355Z,15.63
2023-01-01T18:21:34.042Z,13.57
2023-01-01T18:24:01.754Z,11.52
2023-01-01T18:26:30.865Z,16.33
2023-01-01T18:29:01.046Z,18.85
2023-01-01T18:31:30.593Z,15.02
2023-01-01T18:33:58.393Z,15.60
2023-01-01T18:36:29.885Z,12.30
2023-01-01T18:39:00.279Z,10.45
2023-01-01T18:41:29.510Z,10.52
2023-01-01T18:43:58.430Z,12.13
2023-01-01T18:46:26.069Z,10.75
2023-01-01T18:48:58.835Z,10.52
2023-01-01T18:51:26.770Z,12.10
2023-01-01T18:53:57.880Z,12.75
2023-01-01T18:56:25.384Z,15.20
2023-01-01T18:58:55.150Z,14.25
2023-01-01T19:01:23.997Z,13.88
2023-01-01T19:03:55.087Z,12.75
2023-01-01T19:06:31.970Z,11.70
2023-01-01T19:09:06.525Z,10.65
2023-01-01T19:14:13.913Z,11.10
2023-01-01T19:16:41.109Z,11.00
2023-01-01T19:19:17.868Z,14.98
2023-01-01T19:21:51.594Z,11.85
2023-01-01T19:24:22.505Z,12.20
2023-01-01T19:26:56.485Z,11.68
2023-01-01T19:29:25.110Z,9.05
2023-01-01T19:31:54.402Z,12.48
2023-01-01T19:34:22.543Z,11.27
2023-01-01T19:36:50.185Z,12.20
2023-01-01T19:39:19.374Z,11.63
2023-01-01T19:41:46.993Z,12.40
2023-01-01T19:44:17.283Z,12.18
2023-01-01T19:46:47.070Z,11.88
2023-01-01T19:49:14.296Z,10.90
2023-01-01T19:51:41.632Z,10.05
2023-01-01T19:54:08.683Z,9.70
2023-01-01T19:56:35.910Z,10.95
2023-01-01T19:59:02.933Z,10.35
2023-01-01T20:01:30.182Z,9.80
2023-01-01T20:03:58.908Z,9.38
2023-01-01T20:06:27.270Z,9.00
2023-01-01T20:08:54.949Z,9.55
2023-01-01T20:11:22.416Z,11.60
2023-01-01T20:13:49.743Z,12.40
2023-01-01T20:16:16.916Z,11.80
2023-01-01T20:18:43.938Z,13.80
2023-01-01T20:21:31.090Z,15.40
2023-01-01T20:23:58.160Z,15.77
2023-01-01T20:26:26.224Z,15.75
2023-01-01T20:29:13.563Z,15.50
2023-01-01T20:31:41.887Z,15.50
2023-01-01T20:34:09.104Z,14.60
2023-01-01T20:36:56.296Z,14.23
2023-01-01T20:39:23.550Z,15.30
2023-01-01T20:41:51.129Z,15.40
2023-01-01T20:44:18.596Z,15.68
2023-01-01T20:46:48.307Z,15.88
2023-01-01T20:49:17.403Z,16.92
2023-01-01T20:51:46.208Z,17.48
2023-01-01T20:54:13.707Z,15.18
2023-01-01T20:56:40.913Z,14.05
2023-01-01T20:59:31.819Z,14.60
2023-01-01T21:01:57.372Z,14.57
2023-01-01T21:04:24.526Z,12.65
2023-01-01T21:06:52.221Z,14.43
2023-01-01T21:09:19.415Z,17.65
2023-01-01T21:11:48.288Z,16.33
2023-01-01T21:14:15.438Z,15.18
2023-01-01T21:16:44.528Z,12.50
2023-01-01T21:19:12.779Z,12.35
2023-01-01T21:21:44.904Z,12.48
2023-01-01T21:24:32.431Z,12.52
2023-01-01T21:27:09.699Z,11.50
2023-01-01T21:29:44.127Z,11.85
2023-01-01T21:32:28.833Z,11.30
2023-01-01T21:34:56.135Z,11.93
2023-01-01T21:37:52.766Z,12.13
2023-01-01T21:40:24.385Z,11.43
2023-01-01T21:43:09.685Z,12.00
2023-01-01T21:45:40.871Z,12.43
2023-01-01T21:48:17.833Z,11.63
2023-01-01T21:50:47.821Z,11.82
2023-01-01T21:53:18.827Z,12.18
2023-01-01T21:55:52.357Z,12.82
2023-01-01T21:58:44.427Z,11.98
2023-01-01T22:01:21.052Z,11.38
2023-01-01T22:03:58.384Z,13.02
2023-01-01T22:06:32.287Z,12.82
2023-01-01T22:09:01.359Z,11.75
2023-01-01T22:11:29.789Z,11.85
2023-01-01T22:13:58.208Z,12.02
2023-01-01T22:16:30.179Z,11.13
2023-01-01T22:18:58.208Z,10.88
2023-01-01T22:21:25.736Z,10.90
2023-01-01T22:23:59.135Z,11.48
2023-01-01T22:26:30.168Z,12.00
2023-01-01T22:29:02.233Z,13.02
2023-01-01T22:31:33.474Z,11.55
2023-01-01T22:34:03.511Z,11.25
2023-01-01T22:36:34.268Z,12.50
2023-01-01T22:39:03.705Z,12.15
2023-01-01T22:41:30.827Z,12.73
2023-01-01T22:44:03.364Z,10.20
2023-01-01T22:46:33.891Z,11.95
2023-01-01T22:49:11.139Z,10.70
2023-01-01T22:51:42.743Z,11.05
2023-01-01T22:54:09.874Z,10.52
2023-01-01T22:56:37.016Z,11.18
2023-01-01T22:59:04.290Z,12.00
2023-01-01T23:01:31.668Z,11.18
2023-01-01T23:03:59.070Z,12.75
2023-01-01T23:06:26.681Z,11.20
2023-01-01T23:08:54.424Z,11.43
2023-01-01T23:11:22.476Z,10.90
2023-01-01T23:14:11.222Z,11.45
2023-01-01T23:16:38.419Z,16.67
2023-01-01T23:19:06.284Z,11.63
2023-01-01T23:21:35.011Z,11.60
2023-01-01T23:24:06.505Z,10.68
2023-01-01T23:26:34.102Z,11.10
2023-01-01T23:29:03.377Z,11.52
2023-01-01T23:31:32.561Z,11.32
2023-01-01T23:33:59.929Z,11.60
2023-01-01T23:36:28.334Z,11.18
2023-01-01T23:38:55.392Z,12.07
2023-01-01T23:41:23.245Z,11.82
2023-01-01T23:43:50.419Z,12.07
2023-01-01T23:46:19.078Z,13.15
2023-01-01T23:48:48.092Z,12.55
2023-01-01T23:51:18.423Z,13.68
2023-01-01T23:53:46.148Z,14.00
2023-01-01T23:56:13.384Z,24.45
2023-01-01T23:58:40.500Z,19.52
